createdAt,value
2016-08-29T00:00:42.950Z,17.25
2016-08-29T00:01:42.943Z,17.33
2016-08-29T00:02:42.936Z,17.32
2016-08-29T00:03:42.945Z,17.41
2016-08-29T00:04:42.937Z,17.26
2016-08-29T00:05:42.959Z,17.22
2016-08-29T00:06:42.947Z,17.22
2016-08-29T00:07:42.930Z,17.29
2016-08-29T00:08:42.939Z,17.2
2016-08-29T00:09:42.958Z,17.13
2016-08-29T00:10:42.932Z,17.29
2016-08-29T00:11:42.961Z,17.22
2016-08-29T00:12:42.959Z,17.22
2016-08-29T00:13:43.113Z,17.23
2016-08-29T00:14:42.975Z,17.18
2016-08-29T00:15:42.958Z,17.11
2016-08-29T00:16:42.959Z,17.11
2016-08-29T00:17:42.977Z,17.15
2016-08-29T00:18:42.955Z,17.18
2016-08-29T00:19:43.025Z,17.17
2016-08-29T00:20:43.262Z,17.13
2016-08-29T00:21:42.963Z,17.08
2016-08-29T00:22:43.010Z,17.2
2016-08-29T00:23:42.976Z,17.1
2016-08-29T00:24:43.004Z,17.13
2016-08-29T00:25:43.107Z,17.03
2016-08-29T00:26:42.948Z,17.15
2016-08-29T00:27:42.980Z,17.17
2016-08-29T00:28:43.008Z,17.23
2016-08-29T00:29:42.961Z,17.04
2016-08-29T00:30:43.066Z,17.07
2016-08-29T00:31:43.635Z,17.15
2016-08-29T00:32:42.983Z,17.1
2016-08-29T00:33:43.029Z,17.1
2016-08-29T00:34:43.022Z,17.11
2016-08-29T00:35:43.100Z,17.2
2016-08-29T00:36:42.983Z,17.14
2016-08-29T00:37:42.973Z,17.15
2016-08-29T00:38:42.977Z,17.23
2016-08-29T00:39:42.983Z,17.23
2016-08-29T00:40:43.156Z,17.25
2016-08-29T00:41:42.997Z,17.17
2016-08-29T00:42:42.985Z,17.15
2016-08-29T00:43:42.987Z,17.2
2016-08-29T00:44:42.991Z,17.14
2016-08-29T00:45:43.086Z,17.11
2016-08-29T00:46:42.976Z,17.28
2016-08-29T00:47:43.141Z,17.14
2016-08-29T00:48:43.007Z,17.14
2016-08-29T00:49:42.978Z,17.22
2016-08-29T00:50:43.002Z,17.22
2016-08-29T00:51:42.976Z,17.25
2016-08-29T00:52:43.015Z,17.13
2016-08-29T00:53:42.992Z,17.1
2016-08-29T00:54:43.005Z,17.17
2016-08-29T00:55:42.978Z,17.18
2016-08-29T00:56:42.985Z,17.18
2016-08-29T00:57:43.021Z,17.15
2016-08-29T00:58:43.784Z,17
2016-08-29T00:59:43.005Z,17.13
2016-08-29T01:00:43.011Z,17.04
2016-08-29T01:01:43.017Z,17.22
2016-08-29T01:02:42.980Z,17.17
2016-08-29T01:03:42.987Z,17.06
2016-08-29T01:04:42.993Z,17.18
2016-08-29T01:05:43.028Z,17.04
2016-08-29T01:06:42.988Z,17.1
2016-08-29T01:07:42.991Z,17.03
2016-08-29T01:08:43.008Z,16.96
2016-08-29T01:09:42.994Z,17.06
2016-08-29T01:10:43.010Z,16.96
2016-08-29T01:11:42.993Z,16.98
2016-08-29T01:12:43.013Z,16.92
2016-08-29T01:13:43.216Z,16.98
2016-08-29T01:14:43.013Z,17.03
2016-08-29T01:15:42.995Z,17.04
2016-08-29T01:16:43.011Z,16.93
2016-08-29T01:17:42.994Z,17.11
2016-08-29T01:18:43.025Z,16.93
2016-08-29T01:19:43.008Z,16.93
2016-08-29T01:20:43.021Z,16.95
2016-08-29T01:21:43.014Z,16.83
2016-08-29T01:22:43.024Z,16.95
2016-08-29T01:23:43.010Z,16.9
2016-08-29T01:24:43.049Z,16.96
2016-08-29T01:25:43.023Z,16.88
2016-08-29T01:26:43.034Z,16.95
2016-08-29T01:27:43.022Z,16.81
2016-08-29T01:28:43.114Z,16.9
2016-08-29T01:29:43.037Z,16.86
2016-08-29T01:30:43.035Z,16.83
2016-08-29T01:31:43.044Z,16.71
2016-08-29T01:32:43.039Z,16.78
2016-08-29T01:33:43.035Z,16.65
2016-08-29T01:34:43.025Z,16.68
2016-08-29T01:35:43.056Z,16.62
2016-08-29T01:36:43.010Z,16.7
2016-08-29T01:37:43.029Z,16.81
2016-08-29T01:38:43.050Z,16.75
2016-08-29T01:39:43.041Z,16.67
2016-08-29T01:40:43.048Z,16.71
2016-08-29T01:41:43.026Z,16.71
2016-08-29T01:42:43.032Z,16.71
2016-08-29T01:43:43.149Z,16.71
2016-08-29T01:44:43.073Z,16.73
2016-08-29T01:45:43.036Z,16.67
2016-08-29T01:46:43.054Z,16.55
2016-08-29T01:47:43.044Z,16.63
2016-08-29T01:48:43.053Z,16.68
2016-08-29T01:49:43.073Z,16.74
2016-08-29T01:50:43.041Z,16.67
2016-08-29T01:51:43.057Z,16.73
2016-08-29T01:52:43.049Z,16.62
2016-08-29T01:53:43.055Z,16.7
2016-08-29T01:54:43.043Z,16.7
2016-08-29T01:55:43.057Z,16.7
2016-08-29T01:56:43.058Z,16.71
2016-08-29T01:57:43.058Z,16.68
2016-08-29T01:58:43.630Z,16.71
2016-08-29T01:59:43.051Z,16.67
2016-08-29T02:00:43.056Z,16.68
2016-08-29T02:01:43.076Z,16.68
2016-08-29T02:02:43.052Z,16.65
2016-08-29T02:03:43.060Z,16.73
2016-08-29T02:04:43.069Z,16.68
2016-08-29T02:05:43.045Z,16.62
2016-08-29T02:06:43.048Z,16.59
2016-08-29T02:07:43.042Z,16.63
2016-08-29T02:08:43.047Z,16.59
2016-08-29T02:09:43.067Z,16.68
2016-08-29T02:10:43.043Z,16.63
2016-08-29T02:11:43.074Z,16.59
2016-08-29T02:12:43.073Z,16.63
2016-08-29T02:13:43.191Z,16.7
2016-08-29T02:14:43.059Z,16.71
2016-08-29T02:15:43.061Z,16.63
2016-08-29T02:16:43.068Z,16.65
2016-08-29T02:17:43.071Z,16.73
2016-08-29T02:18:43.078Z,16.74
2016-08-29T02:19:43.089Z,16.68
2016-08-29T02:20:43.091Z,16.77
2016-08-29T02:21:43.072Z,16.71
2016-08-29T02:22:43.075Z,16.77
2016-08-29T02:23:43.072Z,16.83
2016-08-29T02:24:43.075Z,16.83
2016-08-29T02:25:43.088Z,16.85
2016-08-29T02:26:43.089Z,16.92
2016-08-29T02:27:43.093Z,16.95
2016-08-29T02:28:43.178Z,17.07
2016-08-29T02:29:43.089Z,17.1
2016-08-29T02:30:43.071Z,17.1
2016-08-29T02:31:43.062Z,16.95
2016-08-29T02:32:43.083Z,17.14
2016-08-29T02:33:43.101Z,17.03
2016-08-29T02:34:43.092Z,17.14
2016-08-29T02:35:43.087Z,17.13
2016-08-29T02:36:43.077Z,17.13
2016-08-29T02:37:43.087Z,17.07
2016-08-29T02:38:43.091Z,17.06
2016-08-29T02:39:43.085Z,16.99
2016-08-29T02:40:43.089Z,17.15
2016-08-29T02:41:43.124Z,17.07
2016-08-29T02:42:43.089Z,17.08
2016-08-29T02:43:43.210Z,17.08
2016-08-29T02:44:43.098Z,17.06
2016-08-29T02:45:43.107Z,17.08
2016-08-29T02:46:43.069Z,17.08
2016-08-29T02:47:43.076Z,17.07
2016-08-29T02:48:43.098Z,16.98
2016-08-29T02:49:43.092Z,16.96
2016-08-29T02:50:43.088Z,17.14
2016-08-29T02:51:43.104Z,16.93
2016-08-29T02:52:43.102Z,17.03
2016-08-29T02:53:43.104Z,17.14
2016-08-29T02:54:43.119Z,17.06
2016-08-29T02:55:43.107Z,17.03
2016-08-29T02:56:43.121Z,17.08
2016-08-29T02:57:43.104Z,17.04
2016-08-29T02:58:43.197Z,17.06
2016-08-29T02:59:43.150Z,17.13
2016-08-29T03:00:43.095Z,17.15
2016-08-29T03:01:43.115Z,17.1
2016-08-29T03:02:43.091Z,17.13
2016-08-29T03:03:43.138Z,17.04
2016-08-29T03:04:43.102Z,17.08
2016-08-29T03:05:43.117Z,17.11
2016-08-29T03:06:43.102Z,17.11
2016-08-29T03:07:43.113Z,17.15
2016-08-29T03:08:43.133Z,17.13
2016-08-29T03:09:43.106Z,17.26
2016-08-29T03:10:43.118Z,17.07
2016-08-29T03:11:43.113Z,17.18
2016-08-29T03:12:43.125Z,17.25
2016-08-29T03:13:43.192Z,17.17
2016-08-29T03:14:43.127Z,17.26
2016-08-29T03:15:43.122Z,17.29
2016-08-29T03:16:43.134Z,17.4
2016-08-29T03:17:43.128Z,17.4
2016-08-29T03:18:43.137Z,17.35
2016-08-29T03:19:43.136Z,17.3
2016-08-29T03:20:43.142Z,17.4
2016-08-29T03:21:43.154Z,17.41
2016-08-29T03:22:43.112Z,17.4
2016-08-29T03:23:43.121Z,17.4
2016-08-29T03:24:43.126Z,17.41
2016-08-29T03:25:43.109Z,17.48
2016-08-29T03:26:43.133Z,17.59
2016-08-29T03:27:43.167Z,17.59
2016-08-29T03:28:43.214Z,17.53
2016-08-29T03:29:43.123Z,17.66
2016-08-29T03:30:43.123Z,17.62
2016-08-29T03:31:43.123Z,17.69
2016-08-29T03:32:43.137Z,17.69
2016-08-29T03:33:43.161Z,17.66
2016-08-29T03:34:43.144Z,17.71
2016-08-29T03:35:43.141Z,17.84
2016-08-29T03:36:43.137Z,17.78
2016-08-29T03:37:43.143Z,17.84
2016-08-29T03:38:43.165Z,17.79
2016-08-29T03:39:43.136Z,17.82
2016-08-29T03:40:43.154Z,17.85
2016-08-29T03:41:43.154Z,18
2016-08-29T03:42:43.161Z,17.85
2016-08-29T03:43:43.214Z,17.87
2016-08-29T03:44:43.184Z,18
2016-08-29T03:45:43.167Z,18.02
2016-08-29T03:46:43.171Z,17.99
2016-08-29T03:47:43.189Z,18.06
2016-08-29T03:48:43.142Z,18.1
2016-08-29T03:49:43.150Z,18.09
2016-08-29T03:50:43.155Z,18.18
2016-08-29T03:51:43.142Z,18.13
2016-08-29T03:52:43.154Z,18.13
2016-08-29T03:53:43.155Z,18.22
2016-08-29T03:54:43.172Z,18.21
2016-08-29T03:55:43.158Z,18.25
2016-08-29T03:56:43.154Z,18.19
2016-08-29T03:57:43.153Z,18.21
2016-08-29T03:58:43.158Z,18.34
2016-08-29T03:59:43.152Z,18.27
2016-08-29T04:00:43.148Z,18.33
2016-08-29T04:01:43.168Z,18.28
2016-08-29T04:02:43.140Z,18.39
2016-08-29T04:03:43.155Z,18.46
2016-08-29T04:04:43.160Z,18.28
2016-08-29T04:05:43.168Z,18.39
2016-08-29T04:06:43.157Z,18.43
2016-08-29T04:07:43.163Z,18.36
2016-08-29T04:08:43.157Z,18.43
2016-08-29T04:09:43.175Z,18.55
2016-08-29T04:10:43.155Z,18.49
2016-08-29T04:11:43.174Z,18.46
2016-08-29T04:12:43.168Z,18.4
2016-08-29T04:13:43.228Z,18.37
2016-08-29T04:14:43.168Z,18.42
2016-08-29T04:15:43.186Z,18.37
2016-08-29T04:16:43.166Z,18.5
2016-08-29T04:17:43.170Z,18.42
2016-08-29T04:18:43.178Z,18.49
2016-08-29T04:19:43.171Z,18.43
2016-08-29T04:20:43.173Z,18.52
2016-08-29T04:21:43.182Z,18.54
2016-08-29T04:22:43.189Z,18.36
2016-08-29T04:23:43.170Z,18.4
2016-08-29T04:24:43.184Z,18.42
2016-08-29T04:25:43.191Z,18.39
2016-08-29T04:26:43.201Z,18.36
2016-08-29T04:27:43.190Z,18.42
2016-08-29T04:28:43.170Z,18.39
2016-08-29T04:29:43.186Z,18.37
2016-08-29T04:30:43.203Z,18.44
2016-08-29T04:31:43.192Z,18.46
2016-08-29T04:32:43.193Z,18.52
2016-08-29T04:33:43.200Z,18.43
2016-08-29T04:34:43.207Z,18.58
2016-08-29T04:35:43.638Z,18.49
2016-08-29T04:36:43.192Z,18.4
2016-08-29T04:37:43.772Z,18.55
2016-08-29T04:38:43.219Z,18.39
2016-08-29T04:39:43.230Z,18.49
2016-08-29T04:40:43.193Z,18.46
2016-08-29T04:41:43.216Z,18.47
2016-08-29T04:42:43.209Z,18.54
2016-08-29T04:43:43.201Z,18.46
2016-08-29T04:44:43.204Z,18.46
2016-08-29T04:45:43.209Z,18.57
2016-08-29T04:46:43.217Z,18.64
2016-08-29T04:47:43.190Z,18.64
2016-08-29T04:48:43.234Z,18.44
2016-08-29T04:49:43.219Z,18.5
2016-08-29T04:50:43.218Z,18.52
2016-08-29T04:51:43.206Z,18.62
2016-08-29T04:52:43.202Z,18.62
2016-08-29T04:53:43.210Z,18.49
2016-08-29T04:54:43.210Z,18.47
2016-08-29T04:55:43.207Z,18.47
2016-08-29T04:56:43.210Z,18.42
2016-08-29T04:57:43.230Z,18.37
2016-08-29T04:58:43.203Z,18.33
2016-08-29T04:59:43.224Z,18.27
2016-08-29T05:00:43.219Z,18.36
2016-08-29T05:01:43.234Z,18.19
2016-08-29T05:02:43.353Z,18.28
2016-08-29T05:03:43.237Z,18.21
2016-08-29T05:04:43.220Z,18.22
2016-08-29T05:05:43.206Z,18.22
2016-08-29T05:06:43.242Z,18.19
2016-08-29T05:07:43.222Z,18.19
2016-08-29T05:08:43.217Z,18.19
2016-08-29T05:09:43.240Z,18.12
2016-08-29T05:10:43.242Z,18.12
2016-08-29T05:11:43.245Z,18.1
2016-08-29T05:12:43.237Z,18.17
2016-08-29T05:13:43.216Z,18.12
2016-08-29T05:14:43.220Z,18.07
2016-08-29T05:15:43.248Z,18.09
2016-08-29T05:16:43.247Z,18.06
2016-08-29T05:17:43.256Z,18.04
2016-08-29T05:18:43.232Z,18.07
2016-08-29T05:19:43.238Z,18.13
2016-08-29T05:20:43.232Z,18.09
2016-08-29T05:21:43.250Z,18.12
2016-08-29T05:22:43.255Z,18.06
2016-08-29T05:23:43.221Z,18.06
2016-08-29T05:24:43.250Z,18.03
2016-08-29T05:25:43.233Z,18.09
2016-08-29T05:26:43.255Z,17.97
2016-08-29T05:27:43.326Z,18.1
2016-08-29T05:28:43.281Z,18.02
2016-08-29T05:29:43.255Z,18
2016-08-29T05:30:43.264Z,17.91
2016-08-29T05:31:43.280Z,18.09
2016-08-29T05:32:43.261Z,17.95
2016-08-29T05:33:43.294Z,17.94
2016-08-29T05:34:43.251Z,18.07
2016-08-29T05:35:43.252Z,18.04
2016-08-29T05:36:43.273Z,18.02
2016-08-29T05:37:43.280Z,18.09
2016-08-29T05:38:43.264Z,18.03
2016-08-29T05:39:43.251Z,18.07
2016-08-29T05:40:43.243Z,18.04
2016-08-29T05:41:43.267Z,18.12
2016-08-29T05:42:43.253Z,18.1
2016-08-29T05:43:43.269Z,18.07
2016-08-29T05:44:43.255Z,18.09
2016-08-29T05:45:43.276Z,18.06
2016-08-29T05:46:43.291Z,18.09
2016-08-29T05:47:43.256Z,18.07
2016-08-29T05:48:43.252Z,18.13
2016-08-29T05:49:43.273Z,18.1
2016-08-29T05:50:43.250Z,18.21
2016-08-29T05:51:43.253Z,18.13
2016-08-29T05:52:43.265Z,18.17
2016-08-29T05:53:43.283Z,18.27
2016-08-29T05:54:43.295Z,18.19
2016-08-29T05:55:43.293Z,18.24
2016-08-29T05:56:43.278Z,18.25
2016-08-29T05:57:43.299Z,18.39
2016-08-29T05:58:43.284Z,18.33
2016-08-29T05:59:43.271Z,18.22
2016-08-29T06:00:43.290Z,18.27
2016-08-29T06:01:43.301Z,18.31
2016-08-29T06:02:43.288Z,18.36
2016-08-29T06:03:43.294Z,18.42
2016-08-29T06:04:43.275Z,18.46
2016-08-29T06:05:43.312Z,18.52
2016-08-29T06:06:43.272Z,18.52
2016-08-29T06:07:43.279Z,18.5
2016-08-29T06:08:43.313Z,18.47
2016-08-29T06:09:43.271Z,18.5
2016-08-29T06:10:43.283Z,18.54
2016-08-29T06:11:43.314Z,18.5
2016-08-29T06:12:44.137Z,18.47
2016-08-29T06:13:43.295Z,18.55
2016-08-29T06:14:43.315Z,18.61
2016-08-29T06:15:43.328Z,18.54
2016-08-29T06:16:43.448Z,18.67
2016-08-29T06:17:43.325Z,18.65
2016-08-29T06:18:43.296Z,18.62
2016-08-29T06:19:44.102Z,18.67
2016-08-29T06:20:43.286Z,18.65
2016-08-29T06:21:43.852Z,18.58
2016-08-29T06:22:43.297Z,18.5
2016-08-29T06:23:43.486Z,18.62
2016-08-29T06:24:43.855Z,18.5
2016-08-29T06:25:43.373Z,18.62
2016-08-29T06:26:43.612Z,18.58
2016-08-29T06:27:43.358Z,18.68
2016-08-29T06:28:43.290Z,18.79
2016-08-29T06:29:43.363Z,18.64
2016-08-29T06:30:43.496Z,18.65
2016-08-29T06:31:43.526Z,18.74
2016-08-29T06:32:43.628Z,18.87
2016-08-29T06:33:43.752Z,18.79
2016-08-29T06:34:43.957Z,18.84
2016-08-29T06:35:43.359Z,18.83
2016-08-29T06:36:43.832Z,18.76
2016-08-29T06:37:43.451Z,18.73
2016-08-29T06:38:43.311Z,18.73
2016-08-29T06:39:43.300Z,18.9
2016-08-29T06:40:43.495Z,18.83
2016-08-29T06:41:43.740Z,18.95
2016-08-29T06:42:43.400Z,18.98
2016-08-29T06:43:43.344Z,19.08
2016-08-29T06:44:43.963Z,18.99
2016-08-29T06:45:43.297Z,19.11
2016-08-29T06:46:43.739Z,19.01
2016-08-29T06:47:43.329Z,19.17
2016-08-29T06:48:43.641Z,19.13
2016-08-29T06:49:43.614Z,19.24
2016-08-29T06:50:43.315Z,19.23
2016-08-29T06:51:43.315Z,19.31
2016-08-29T06:52:43.359Z,19.38
2016-08-29T06:53:43.370Z,19.36
2016-08-29T06:54:43.915Z,19.43
2016-08-29T06:55:43.317Z,19.35
2016-08-29T06:56:43.342Z,19.39
2016-08-29T06:57:44.006Z,19.5
2016-08-29T06:58:43.339Z,19.46
2016-08-29T06:59:43.315Z,19.43
2016-08-29T07:00:43.331Z,19.47
2016-08-29T07:01:43.316Z,19.51
2016-08-29T07:02:44.096Z,19.63
2016-08-29T07:03:43.327Z,19.63
2016-08-29T07:04:43.364Z,19.61
2016-08-29T07:05:43.342Z,19.65
2016-08-29T07:06:43.347Z,19.7
2016-08-29T07:07:43.328Z,19.9
2016-08-29T07:08:43.673Z,19.93
2016-08-29T07:09:43.368Z,19.91
2016-08-29T07:10:43.480Z,20.02
2016-08-29T07:11:43.351Z,20.2
2016-08-29T07:12:43.360Z,20.16
2016-08-29T07:13:43.483Z,20.18
2016-08-29T07:14:43.470Z,20.21
2016-08-29T07:15:43.365Z,20.2
2016-08-29T07:16:43.346Z,20.2
2016-08-29T07:17:43.340Z,20.2
2016-08-29T07:18:43.349Z,20.18
2016-08-29T07:19:43.348Z,20.27
2016-08-29T07:20:43.361Z,20.28
2016-08-29T07:21:43.432Z,20.28
2016-08-29T07:22:43.344Z,20.28
2016-08-29T07:23:43.350Z,20.33
2016-08-29T07:24:43.418Z,20.31
2016-08-29T07:25:43.410Z,20.28
2016-08-29T07:26:43.381Z,20.18
2016-08-29T07:27:43.392Z,20.3
2016-08-29T07:28:43.367Z,20.33
2016-08-29T07:29:43.362Z,20.3
2016-08-29T07:30:43.406Z,20.51
2016-08-29T07:31:43.369Z,20.62
2016-08-29T07:32:43.376Z,20.65
2016-08-29T07:33:43.443Z,20.61
2016-08-29T07:34:43.420Z,20.87
2016-08-29T07:35:43.408Z,20.95
2016-08-29T07:36:43.471Z,21.04
2016-08-29T07:37:43.426Z,21.17
2016-08-29T07:38:43.465Z,21.21
2016-08-29T07:39:43.408Z,21.26
2016-08-29T07:40:43.442Z,21.46
2016-08-29T07:41:43.459Z,21.53
2016-08-29T07:42:43.480Z,21.56
2016-08-29T07:43:43.429Z,21.44
2016-08-29T07:44:43.391Z,21.53
2016-08-29T07:45:43.428Z,21.53
2016-08-29T07:46:43.393Z,21.59
2016-08-29T07:47:43.409Z,21.56
2016-08-29T07:48:43.405Z,21.5
2016-08-29T07:49:43.649Z,21.45
2016-08-29T07:50:45.013Z,21.59
2016-08-29T07:51:43.378Z,21.67
2016-08-29T07:52:44.310Z,21.79
2016-08-29T07:53:43.389Z,21.79
2016-08-29T07:54:44.132Z,21.74
2016-08-29T07:55:43.408Z,21.76
2016-08-29T07:56:43.383Z,21.78
2016-08-29T07:57:43.387Z,21.79
2016-08-29T07:58:43.424Z,21.83
2016-08-29T07:59:43.406Z,21.79
2016-08-29T08:00:43.418Z,21.64
2016-08-29T08:01:43.435Z,21.71
2016-08-29T08:02:43.396Z,21.81
2016-08-29T08:03:43.430Z,21.76
2016-08-29T08:04:43.489Z,21.83
2016-08-29T08:05:43.396Z,22.02
2016-08-29T08:06:43.389Z,22.04
2016-08-29T08:07:43.394Z,21.99
2016-08-29T08:08:43.409Z,21.91
2016-08-29T08:09:43.411Z,21.85
2016-08-29T08:10:43.430Z,21.78
2016-08-29T08:11:43.390Z,21.78
2016-08-29T08:12:43.474Z,21.75
2016-08-29T08:13:43.439Z,21.75
2016-08-29T08:14:43.459Z,21.74
2016-08-29T08:15:44.414Z,21.72
2016-08-29T08:16:43.411Z,21.74
2016-08-29T08:17:43.424Z,21.59
2016-08-29T08:18:43.397Z,21.66
2016-08-29T08:19:43.417Z,21.72
2016-08-29T08:20:43.470Z,21.74
2016-08-29T08:21:43.417Z,21.71
2016-08-29T08:22:43.425Z,21.91
2016-08-29T08:23:43.430Z,22.04
2016-08-29T08:24:43.409Z,22.02
2016-08-29T08:25:43.442Z,22.2
2016-08-29T08:26:43.454Z,22.39
2016-08-29T08:27:43.453Z,22.43
2016-08-29T08:28:43.536Z,22.47
2016-08-29T08:29:43.429Z,22.72
2016-08-29T08:30:43.442Z,22.67
2016-08-29T08:31:43.430Z,22.77
2016-08-29T08:32:43.425Z,22.77
2016-08-29T08:33:43.423Z,22.89
2016-08-29T08:34:43.425Z,22.9
2016-08-29T08:35:43.414Z,23.04
2016-08-29T08:36:43.419Z,23.04
2016-08-29T08:37:43.423Z,23.22
2016-08-29T08:38:43.427Z,23.31
2016-08-29T08:39:43.412Z,23.49
2016-08-29T08:40:43.459Z,23.55
2016-08-29T08:41:43.440Z,23.65
2016-08-29T08:42:43.474Z,24.02
2016-08-29T08:43:43.425Z,24
2016-08-29T08:44:43.444Z,24.07
2016-08-29T08:45:43.436Z,24.1
2016-08-29T08:46:43.425Z,24.01
2016-08-29T08:47:43.436Z,23.87
2016-08-29T08:48:43.471Z,23.57
2016-08-29T08:49:43.462Z,23.7
2016-08-29T08:50:43.436Z,23.45
2016-08-29T08:51:43.459Z,23.43
2016-08-29T08:52:43.424Z,23.35
2016-08-29T08:53:43.455Z,23.22
2016-08-29T08:54:43.451Z,23.14
2016-08-29T08:55:43.454Z,23.01
2016-08-29T08:56:43.457Z,22.78
2016-08-29T08:57:43.472Z,22.75
2016-08-29T08:58:43.453Z,22.87
2016-08-29T08:59:43.514Z,22.87
2016-08-29T09:00:43.462Z,22.8
2016-08-29T09:01:43.439Z,22.82
2016-08-29T09:02:43.490Z,22.82
2016-08-29T09:03:43.472Z,22.75
2016-08-29T09:04:43.444Z,22.62
2016-08-29T09:05:43.470Z,22.62
2016-08-29T09:06:43.469Z,22.52
2016-08-29T09:07:43.448Z,22.41
2016-08-29T09:08:43.473Z,22.35
2016-08-29T09:09:43.446Z,22.28
2016-08-29T09:10:43.460Z,22.19
2016-08-29T09:11:43.485Z,22.19
2016-08-29T09:12:43.474Z,22.19
2016-08-29T09:13:43.479Z,22.14
2016-08-29T09:14:43.455Z,22.07
2016-08-29T09:15:43.486Z,22.04
2016-08-29T09:16:43.562Z,21.99
2016-08-29T09:17:43.461Z,22.01
2016-08-29T09:18:43.490Z,22.04
2016-08-29T09:19:43.475Z,22.07
2016-08-29T09:20:43.490Z,22.02
2016-08-29T09:21:43.486Z,21.97
2016-08-29T09:22:43.491Z,21.91
2016-08-29T09:23:43.452Z,21.98
2016-08-29T09:24:43.472Z,21.92
2016-08-29T09:25:43.504Z,21.94
2016-08-29T09:26:43.457Z,22.2
2016-08-29T09:27:43.506Z,22.01
2016-08-29T09:28:43.456Z,22.07
2016-08-29T09:29:43.492Z,22.01
2016-08-29T09:30:43.497Z,22.07
2016-08-29T09:31:43.487Z,21.98
2016-08-29T09:32:43.523Z,22.04
2016-08-29T09:33:43.517Z,21.97
2016-08-29T09:34:43.490Z,22.14
2016-08-29T09:35:43.488Z,22.16
2016-08-29T09:36:43.489Z,22.14
2016-08-29T09:37:43.532Z,22.07
2016-08-29T09:38:43.504Z,22.13
2016-08-29T09:39:43.487Z,21.99
2016-08-29T09:40:43.504Z,22.04
2016-08-29T09:41:43.495Z,22.19
2016-08-29T09:42:43.469Z,22.16
2016-08-29T09:43:43.523Z,22.17
2016-08-29T09:44:43.534Z,22.28
2016-08-29T09:45:43.522Z,22.28
2016-08-29T09:46:43.505Z,22.49
2016-08-29T09:47:43.536Z,22.43
2016-08-29T09:48:43.505Z,22.54
2016-08-29T09:49:43.509Z,22.74
2016-08-29T09:50:43.510Z,22.87
2016-08-29T09:51:43.520Z,22.87
2016-08-29T09:52:43.504Z,22.9
2016-08-29T09:53:43.490Z,22.96
2016-08-29T09:54:43.519Z,23.09
2016-08-29T09:55:43.504Z,23.26
2016-08-29T09:56:43.506Z,23.31
2016-08-29T09:57:44.191Z,23.43
2016-08-29T09:58:43.491Z,23.4
2016-08-29T09:59:43.516Z,23.61
2016-08-29T10:00:44.200Z,23.64
2016-08-29T10:01:43.520Z,23.67
2016-08-29T10:02:43.527Z,23.67
2016-08-29T10:03:43.704Z,23.6
2016-08-29T10:04:43.518Z,23.75
2016-08-29T10:05:43.524Z,23.65
2016-08-29T10:06:43.532Z,23.67
2016-08-29T10:07:43.502Z,23.79
2016-08-29T10:08:43.542Z,23.77
2016-08-29T10:09:43.589Z,23.82
2016-08-29T10:10:43.525Z,23.64
2016-08-29T10:11:43.585Z,23.77
2016-08-29T10:12:43.593Z,23.79
2016-08-29T10:13:43.518Z,23.79
2016-08-29T10:14:43.550Z,23.7
2016-08-29T10:15:43.586Z,23.79
2016-08-29T10:16:43.559Z,23.8
2016-08-29T10:17:43.529Z,23.92
2016-08-29T10:18:43.572Z,23.9
2016-08-29T10:19:43.549Z,23.97
2016-08-29T10:20:43.626Z,24.05
2016-08-29T10:21:43.536Z,24.12
2016-08-29T10:22:43.557Z,24.05
2016-08-29T10:23:43.550Z,24.02
2016-08-29T10:24:43.541Z,24.23
2016-08-29T10:25:43.537Z,24.32
2016-08-29T10:26:43.537Z,24.2
2016-08-29T10:27:43.615Z,24.41
2016-08-29T10:28:43.630Z,24.49
2016-08-29T10:29:43.551Z,24.53
2016-08-29T10:30:43.547Z,24.69
2016-08-29T10:31:43.539Z,24.92
2016-08-29T10:32:43.558Z,24.71
2016-08-29T10:33:43.700Z,24.79
2016-08-29T10:34:43.811Z,24.8
2016-08-29T10:35:43.556Z,24.85
2016-08-29T10:36:43.545Z,24.88
2016-08-29T10:37:43.551Z,24.97
2016-08-29T10:38:43.557Z,24.91
2016-08-29T10:39:44.474Z,24.88
2016-08-29T10:40:43.672Z,25.06
2016-08-29T10:41:43.581Z,25.06
2016-08-29T10:42:43.553Z,25.22
2016-08-29T10:43:43.590Z,25.32
2016-08-29T10:44:43.564Z,25.39
2016-08-29T10:45:43.574Z,25.3
2016-08-29T10:46:43.572Z,25.31
2016-08-29T10:47:43.599Z,25.31
2016-08-29T10:48:43.568Z,25.3
2016-08-29T10:49:43.644Z,25.38
2016-08-29T10:50:43.567Z,25.31
2016-08-29T10:51:43.594Z,25.37
2016-08-29T10:52:43.568Z,25.35
2016-08-29T10:53:43.555Z,25.35
2016-08-29T10:54:43.607Z,25.32
2016-08-29T10:55:43.585Z,25.31
2016-08-29T10:56:43.579Z,25.34
2016-08-29T10:57:43.655Z,25.12
2016-08-29T10:58:44.319Z,25.15
2016-08-29T10:59:43.569Z,25.16
2016-08-29T11:00:43.601Z,25.12
2016-08-29T11:01:43.582Z,25.13
2016-08-29T11:02:43.586Z,24.91
2016-08-29T11:03:43.592Z,24.92
2016-08-29T11:04:43.605Z,25.01
2016-08-29T11:05:43.634Z,24.97
2016-08-29T11:06:43.600Z,24.92
2016-08-29T11:07:43.593Z,24.9
2016-08-29T11:08:43.654Z,24.91
2016-08-29T11:09:43.599Z,24.73
2016-08-29T11:10:43.965Z,24.79
2016-08-29T11:11:43.630Z,24.91
2016-08-29T11:12:43.619Z,24.98
2016-08-29T11:13:44.418Z,24.92
2016-08-29T11:14:43.850Z,24.98
2016-08-29T11:15:44.326Z,25.09
2016-08-29T11:16:43.590Z,25.24
2016-08-29T11:17:43.840Z,25.28
2016-08-29T11:18:44.403Z,25.17
2016-08-29T11:19:44.016Z,25.2
2016-08-29T11:20:43.683Z,25.06
2016-08-29T11:21:43.944Z,25.07
2016-08-29T11:22:44.273Z,25.17
2016-08-29T11:23:43.636Z,25.24
2016-08-29T11:24:43.614Z,25.15
2016-08-29T11:25:43.605Z,25.12
2016-08-29T11:26:43.621Z,25.19
2016-08-29T11:27:43.899Z,25.27
2016-08-29T11:28:43.634Z,25.3
2016-08-29T11:29:43.640Z,25.39
2016-08-29T11:30:43.624Z,25.42
2016-08-29T11:31:43.671Z,25.42
2016-08-29T11:32:43.660Z,25.56
2016-08-29T11:33:43.682Z,25.69
2016-08-29T11:34:43.616Z,25.67
2016-08-29T11:35:43.674Z,25.77
2016-08-29T11:36:43.712Z,25.75
2016-08-29T11:37:43.614Z,25.8
2016-08-29T11:38:43.677Z,25.97
2016-08-29T11:39:43.652Z,25.93
2016-08-29T11:40:43.647Z,26.01
2016-08-29T11:41:43.633Z,26.01
2016-08-29T11:42:43.677Z,26.11
2016-08-29T11:43:43.625Z,25.99
2016-08-29T11:44:43.633Z,26.01
2016-08-29T11:45:43.643Z,26.05
2016-08-29T11:46:43.670Z,25.91
2016-08-29T11:47:43.654Z,25.97
2016-08-29T11:48:43.654Z,26.08
2016-08-29T11:49:43.669Z,25.98
2016-08-29T11:50:43.647Z,26.02
2016-08-29T11:51:43.634Z,25.98
2016-08-29T11:52:43.707Z,25.99
2016-08-29T11:53:43.653Z,26.01
2016-08-29T11:54:43.637Z,25.97
2016-08-29T11:55:43.650Z,25.93
2016-08-29T11:56:43.670Z,25.83
2016-08-29T11:57:43.646Z,25.89
2016-08-29T11:58:43.632Z,25.72
2016-08-29T11:59:44.341Z,25.77
2016-08-29T12:00:43.638Z,25.74
2016-08-29T12:01:43.646Z,25.64
2016-08-29T12:02:43.666Z,25.54
2016-08-29T12:03:43.647Z,25.57
2016-08-29T12:04:43.666Z,25.64
2016-08-29T12:05:43.639Z,25.68
2016-08-29T12:06:43.676Z,25.59
2016-08-29T12:07:43.658Z,25.59
2016-08-29T12:08:43.647Z,25.57
2016-08-29T12:09:43.622Z,25.67
2016-08-29T12:10:43.659Z,25.65
2016-08-29T12:11:43.680Z,25.62
2016-08-29T12:12:43.674Z,25.57
2016-08-29T12:13:43.666Z,25.57
2016-08-29T12:14:43.650Z,25.67
2016-08-29T12:15:43.635Z,25.82
2016-08-29T12:16:43.648Z,25.8
2016-08-29T12:17:43.669Z,25.84
2016-08-29T12:18:43.676Z,25.97
2016-08-29T12:19:43.648Z,25.82
2016-08-29T12:20:43.711Z,25.8
2016-08-29T12:21:43.647Z,25.83
2016-08-29T12:22:43.673Z,25.84
2016-08-29T12:23:43.678Z,25.8
2016-08-29T12:24:43.692Z,25.74
2016-08-29T12:25:43.691Z,25.79
2016-08-29T12:26:43.665Z,25.72
2016-08-29T12:27:43.669Z,25.79
2016-08-29T12:28:43.689Z,25.8
2016-08-29T12:29:43.663Z,25.83
2016-08-29T12:30:43.669Z,25.75
2016-08-29T12:31:43.657Z,25.74
2016-08-29T12:32:43.692Z,25.75
2016-08-29T12:33:43.709Z,25.61
2016-08-29T12:34:43.723Z,25.54
2016-08-29T12:35:43.699Z,25.54
2016-08-29T12:36:43.763Z,25.5
2016-08-29T12:37:43.721Z,25.56
2016-08-29T12:38:43.702Z,25.42
2016-08-29T12:39:43.676Z,25.53
2016-08-29T12:40:43.682Z,25.38
2016-08-29T12:41:43.679Z,25.44
2016-08-29T12:42:43.758Z,25.47
2016-08-29T12:43:43.740Z,25.59
2016-08-29T12:44:43.696Z,25.59
2016-08-29T12:45:43.716Z,25.68
2016-08-29T12:46:43.711Z,25.61
2016-08-29T12:47:43.715Z,25.62
2016-08-29T12:48:43.709Z,25.68
2016-08-29T12:49:43.714Z,25.77
2016-08-29T12:50:43.840Z,25.84
2016-08-29T12:51:43.897Z,25.82
2016-08-29T12:52:44.527Z,25.93
2016-08-29T12:53:43.894Z,25.86
2016-08-29T12:54:43.904Z,25.94
2016-08-29T12:55:43.726Z,26.04